Humidity-temperature Sensor

Selected Measurement Type: Air Temperature

 
Air Temperature [°C]     6 entries per hour
Showing data from 12/2/2023 (23:50:00 Z) to 11/29/2023 (00:01:00 Z)
Previous Next [ Day | 3-Days | 7-Days ]
First Last
Prev [ Day | 3-Days | 7-Days ] Next
First Last

Start Time:     :
End Time:     :     
Time (in GMT) :00 :50 :40 :30 :20 :10
Previous Next [ Day | 3-Days | 7-Days ]
First Last
Prev [ Day | 3-Days | 7-Days ] Next
First Last


123 => good data
MM => data is determined as missing
-- => data not received/configured
Back to Top Back to Top
12/3/2023 00:00 to 23:10 -- 25.57 25.41 25.11 24.66 25.09
12/2/2023 23:00 to 22:10 25.57 25.50 25.59 25.60 25.58 25.81
12/2/2023 22:00 to 21:10 25.83 25.81 25.76 25.69 25.73 25.65
12/2/2023 21:00 to 20:10 25.75 25.59 25.59 25.60 25.38 25.40
12/2/2023 20:00 to 19:10 25.31 25.36 25.53 25.45 25.46 25.46
12/2/2023 19:00 to 18:10 25.30 25.31 25.32 25.38 25.35 25.34
12/2/2023 18:00 to 17:10 25.35 25.37 25.30 25.35 25.40 25.39
12/2/2023 17:00 to 16:10 25.46 25.31 25.40 25.43 25.24 25.30
12/2/2023 16:00 to 15:10 25.35 25.36 25.28 25.36 25.68 25.45
12/2/2023 15:00 to 14:10 25.47 25.55 25.57 25.47 25.18 25.30
12/2/2023 14:00 to 13:10 25.28 25.31 25.07 25.05 25.06 25.07
12/2/2023 13:00 to 12:10 24.97 25.07 25.08 25.09 25.12 25.21
12/2/2023 12:00 to 11:10 25.16 25.24 25.02 25.16 25.06 25.03
12/2/2023 11:00 to 10:10 25.01 25.13 25.18 25.13 25.09 25.11
12/2/2023 10:00 to 9:10 25.05 25.02 25.25 25.09 25.08 25.11
12/2/2023 09:00 to 8:10 25.09 25.02 25.06 25.24 25.19 25.15
12/2/2023 08:00 to 7:10 25.16 25.16 25.12 25.17 25.20 25.22
12/2/2023 07:00 to 6:10 25.31 25.28 25.25 25.18 25.33 25.12
12/2/2023 06:00 to 5:10 25.26 25.43 25.23 25.42 25.35 25.36
12/2/2023 05:00 to 4:10 25.25 25.35 25.37 25.33 25.53 25.35
12/2/2023 04:00 to 3:10 25.32 25.42 25.43 25.41 25.34 25.30
12/2/2023 03:00 to 2:10 25.40 25.25 25.32 25.38 25.41 25.31
12/2/2023 02:00 to 1:10 25.28 25.36 25.42 25.29 25.30 25.20
12/2/2023 01:00 to 0:10 25.25 25.38 25.31 25.32 25.10 25.28
12/2/2023 00:00 to 23:10 25.21 25.46 25.42 25.52 25.51 25.64
12/1/2023 23:00 to 22:10 25.64 25.72 25.56 25.57 25.66 25.42
12/1/2023 22:00 to 21:10 25.36 25.53 25.39 25.52 25.52 25.49
12/1/2023 21:00 to 20:10 25.58 25.43 25.23 24.78 24.58 24.43
12/1/2023 20:00 to 19:10 24.50 24.45 24.19 24.06 23.95 24.37
12/1/2023 19:00 to 18:10 25.00 24.84 24.93 24.88 25.09 24.91
12/1/2023 18:00 to 17:10 24.90 25.15 25.12 25.46 25.63 25.37
12/1/2023 17:00 to 16:10 25.52 25.37 25.53 25.31 25.28 25.48
12/1/2023 16:00 to 15:10 25.38 25.52 25.50 25.69 25.76 25.63
12/1/2023 15:00 to 14:10 25.79 25.63 25.68 25.76 25.61 25.47
12/1/2023 14:00 to 13:10 25.45 25.43 25.37 25.33 25.24 25.03
12/1/2023 13:00 to 12:10 24.95 24.85 24.96 24.95 24.84 24.92
12/1/2023 12:00 to 11:10 24.84 24.99 25.10 24.99 25.11 25.21
12/1/2023 11:00 to 10:10 25.31 25.19 25.17 25.44 25.13 25.15
12/1/2023 10:00 to 9:10 25.24 25.20 25.14 25.37 25.26 25.36
12/1/2023 09:00 to 8:10 25.17 25.33 25.33 25.10 25.10 25.29
12/1/2023 08:00 to 7:10 25.66 25.57 25.55 25.55 25.48 25.67
12/1/2023 07:00 to 6:10 25.78 25.57 25.59 25.71 25.68 25.67
12/1/2023 06:00 to 5:10 25.79 25.84 25.87 25.81 25.80 25.85
12/1/2023 05:00 to 4:10 26.09 25.94 25.97 25.95 25.83 25.76
12/1/2023 04:00 to 3:10 25.82 25.89 25.85 25.60 25.50 25.53
12/1/2023 03:00 to 2:10 25.27 25.22 25.12 25.19 25.33 25.33
12/1/2023 02:00 to 1:10 25.68 25.58 25.55 25.51 25.59 25.62
12/1/2023 01:00 to 0:10 25.73 25.72 25.81 25.87 25.92 25.87
12/1/2023 00:00 to 23:10 25.78 25.85 25.85 25.86 25.99 25.81
11/30/2023 23:00 to 22:10 25.68 25.64 25.91 25.67 25.60 25.63
11/30/2023 22:00 to 21:10 25.49 25.56 25.65 25.49 25.42 25.58
11/30/2023 21:00 to 20:10 25.46 25.44 25.42 25.34 25.52 25.46
11/30/2023 20:00 to 19:10 25.51 25.40 25.46 25.55 25.39 25.39
11/30/2023 19:00 to 18:10 25.46 25.41 25.46 25.26 25.29 25.49
11/30/2023 18:00 to 17:10 25.42 25.45 25.50 25.44 25.49 25.52
11/30/2023 17:00 to 16:10 25.54 25.44 25.57 25.50 25.47 25.60
11/30/2023 16:00 to 15:10 25.39 25.48 25.50 25.46 25.72 25.39
11/30/2023 15:00 to 14:10 25.66 25.60 25.51 25.48 25.35 25.44
11/30/2023 14:00 to 13:10 25.27 25.40 25.38 25.41 25.34 25.32
11/30/2023 13:00 to 12:10 25.41 25.26 25.24 25.39 25.28 25.32
11/30/2023 12:00 to 11:10 25.34 25.22 25.18 25.18 25.26 25.26
11/30/2023 11:00 to 10:10 25.23 25.18 25.15 25.20 25.26 25.29
11/30/2023 10:00 to 9:10 25.17 25.31 25.24 25.26 25.27 25.32
11/30/2023 09:00 to 8:10 25.32 25.25 25.33 25.36 25.25 25.44
11/30/2023 08:00 to 7:10 25.30 25.31 25.34 25.15 25.58 25.33
11/30/2023 07:00 to 6:10 25.39 25.48 25.50 25.42 25.38 25.40
11/30/2023 06:00 to 5:10 25.53 25.60 25.55 25.45 25.53 25.45
11/30/2023 05:00 to 4:10 25.74 25.48 25.64 25.61 25.62 25.67
11/30/2023 04:00 to 3:10 25.70 25.65 25.58 25.88 25.60 25.69
11/30/2023 03:00 to 2:10 25.73 25.66 25.59 25.65 25.77 25.68
11/30/2023 02:00 to 1:10 25.68 25.74 25.79 25.74 25.64 25.70
11/30/2023 01:00 to 0:10 25.63 25.66 25.82 25.60 25.77 26.02
11/30/2023 00:00 to 23:10 25.98 25.52 26.04 25.95 25.96 25.75
11/29/2023 23:00 to 22:10 25.85 25.49 25.50 25.34 25.14 25.10
11/29/2023 22:00 to 21:10 24.97 25.13 25.14 25.60 25.56 25.60
11/29/2023 21:00 to 20:10 25.49 25.90 25.84 25.80 25.69 25.67
11/29/2023 20:00 to 19:10 25.58 25.51 25.40 25.60 25.55 25.45
11/29/2023 19:00 to 18:10 25.50 25.47 25.48 25.52 25.44 25.40
11/29/2023 18:00 to 17:10 25.58 25.72 25.65 25.72 25.68 25.74
11/29/2023 17:00 to 16:10 25.85 25.79 25.51 25.63 25.55 25.58
11/29/2023 16:00 to 15:10 25.55 25.55 25.43 25.44 25.44 25.55
11/29/2023 15:00 to 14:10 25.46 25.27 25.51 25.58 25.86 25.63
11/29/2023 14:00 to 13:10 25.43 25.75 25.78 25.72 25.71 25.77
11/29/2023 13:00 to 12:10 25.58 25.63 25.62 25.67 25.71 25.84
11/29/2023 12:00 to 11:10 25.90 25.47 25.60 25.64 25.59 25.58
11/29/2023 11:00 to 10:10 25.68 25.56 25.69 25.61 25.60 25.58
11/29/2023 10:00 to 9:10 25.65 25.63 25.65 25.54 25.53 25.71
11/29/2023 09:00 to 8:10 25.49 25.67 25.53 25.72 25.61 25.60
11/29/2023 08:00 to 7:10 25.82 25.93 25.72 25.59 25.49 25.63
11/29/2023 07:00 to 6:10 25.79 25.68 25.77 25.77 25.67 25.76
11/29/2023 06:00 to 5:10 25.61 25.76 25.62 25.61 25.20 25.70
11/29/2023 05:00 to 4:10 25.25 25.03 25.66 25.32 25.17 25.08
11/29/2023 04:00 to 3:10 25.05 25.44 25.81 25.76 25.76 25.79
11/29/2023 03:00 to 2:10 25.72 25.78 25.71 25.75 25.55 25.71
11/29/2023 02:00 to 1:10 25.78 25.61 25.63 25.83 25.53 25.63
11/29/2023 01:00 to 0:10 25.67 25.61 25.56 25.64 25.69 25.79